createdAt,value
2019-03-27T00:00:20.785Z,0.00
2019-03-27T00:01:20.778Z,0.00
2019-03-27T00:02:20.966Z,0.00
2019-03-27T00:03:20.957Z,0.00
2019-03-27T00:05:20.756Z,0.00
2019-03-27T00:06:20.737Z,0.00
2019-03-27T00:07:20.732Z,0.00
2019-03-27T00:08:20.924Z,0.00
2019-03-27T00:10:20.713Z,0.00
2019-03-27T00:11:20.701Z,0.00
2019-03-27T00:13:20.691Z,0.00
2019-03-27T00:14:20.678Z,0.00
2019-03-27T00:16:20.664Z,0.00
2019-03-27T00:18:20.654Z,0.00
2019-03-27T00:22:20.830Z,0.00
2019-03-27T00:23:20.822Z,0.00
2019-03-27T00:24:20.606Z,0.00
2019-03-27T00:28:20.576Z,0.00
2019-03-27T00:30:20.769Z,0.00
2019-03-27T00:32:20.550Z,0.00
2019-03-27T00:33:20.548Z,0.00
2019-03-27T00:34:20.533Z,0.00
2019-03-27T00:35:20.530Z,0.00
2019-03-27T00:37:20.713Z,0.00
2019-03-27T00:38:20.709Z,0.00
2019-03-27T00:41:20.482Z,0.00
2019-03-27T00:43:20.671Z,0.00
2019-03-27T00:44:20.707Z,0.00
2019-03-27T00:45:26.375Z,0.00
2019-03-27T00:46:21.669Z,0.00
2019-03-27T00:47:20.444Z,0.00
2019-03-27T00:48:20.432Z,0.00
2019-03-27T00:51:20.417Z,0.00
2019-03-27T00:52:20.609Z,0.00
2019-03-27T00:53:20.394Z,0.00
2019-03-27T00:54:20.591Z,0.00
2019-03-27T00:55:20.387Z,0.00
2019-03-27T00:56:20.377Z,0.00
2019-03-27T00:57:20.567Z,0.00
2019-03-27T00:59:20.757Z,0.00
2019-03-27T01:00:20.343Z,0.00
2019-03-27T01:01:20.340Z,0.00
2019-03-27T01:02:20.334Z,0.00
2019-03-27T01:04:20.321Z,0.00
2019-03-27T01:05:20.313Z,0.00
2019-03-27T01:06:20.302Z,0.00
2019-03-27T01:08:20.286Z,0.00
2019-03-27T01:09:20.479Z,0.00
2019-03-27T01:10:20.273Z,0.00
2019-03-27T01:11:20.265Z,0.00
2019-03-27T01:12:20.256Z,0.00
2019-03-27T01:13:20.245Z,0.00
2019-03-27T01:15:20.240Z,0.00
2019-03-27T01:16:20.229Z,0.00
2019-03-27T01:17:20.212Z,0.00
2019-03-27T01:18:20.211Z,0.00
2019-03-27T01:19:20.401Z,0.00
2019-03-27T01:20:20.602Z,0.00
2019-03-27T01:21:20.188Z,0.00
2019-03-27T01:24:20.160Z,0.00
2019-03-27T01:25:20.353Z,0.00
2019-03-27T01:26:20.372Z,0.00
2019-03-27T01:27:20.341Z,0.00
2019-03-27T01:28:20.136Z,0.00
2019-03-27T01:29:20.533Z,0.00
2019-03-27T01:32:20.104Z,0.00
2019-03-27T01:34:20.086Z,0.00
2019-03-27T01:36:20.073Z,0.00
2019-03-27T01:38:20.257Z,0.00
2019-03-27T01:39:20.050Z,0.00
2019-03-27T01:40:20.042Z,0.00
2019-03-27T01:41:20.238Z,0.00
2019-03-27T01:43:20.021Z,0.00
2019-03-27T01:44:20.210Z,0.00
2019-03-27T01:45:20.001Z,0.00
2019-03-27T01:47:19.991Z,0.00
2019-03-27T01:48:19.978Z,0.00
2019-03-27T01:50:19.962Z,0.00
2019-03-27T01:51:19.951Z,0.00
2019-03-27T01:52:20.146Z,0.00
2019-03-27T01:55:20.130Z,0.00
2019-03-27T01:56:19.918Z,0.00
2019-03-27T01:57:19.904Z,0.00
2019-03-27T01:58:19.899Z,0.00
2019-03-27T01:59:19.894Z,0.00
2019-03-27T02:01:19.874Z,0.00
2019-03-27T02:02:19.870Z,0.00
2019-03-27T02:04:19.855Z,0.00
2019-03-27T02:05:19.846Z,0.00
2019-03-27T02:06:19.839Z,0.00
2019-03-27T02:08:20.028Z,0.00
2019-03-27T02:09:19.817Z,0.00
2019-03-27T02:10:19.807Z,0.00
2019-03-27T02:12:19.797Z,0.00
2019-03-27T02:13:19.781Z,0.00
2019-03-27T02:14:19.778Z,0.00
2019-03-27T02:15:19.766Z,0.00
2019-03-27T02:16:20.991Z,0.00
2019-03-27T02:17:20.156Z,0.00
2019-03-27T02:18:19.746Z,0.00
2019-03-27T02:19:19.739Z,0.00
2019-03-27T02:21:19.725Z,0.00
2019-03-27T02:23:19.707Z,0.00
2019-03-27T02:24:19.898Z,0.00
2019-03-27T02:25:19.886Z,0.00
2019-03-27T02:26:20.080Z,0.00
2019-03-27T02:27:19.675Z,0.00
2019-03-27T02:29:19.650Z,0.00
2019-03-27T02:30:19.646Z,0.00
2019-03-27T02:33:19.623Z,0.00
2019-03-27T02:34:19.612Z,0.00
2019-03-27T02:35:19.612Z,0.00
2019-03-27T02:36:19.813Z,0.00
2019-03-27T02:38:19.788Z,0.00
2019-03-27T02:40:19.566Z,0.00
2019-03-27T02:41:19.762Z,0.00
2019-03-27T02:42:19.754Z,0.00
2019-03-27T02:43:19.545Z,0.00
2019-03-27T02:44:19.531Z,0.00
2019-03-27T02:45:19.731Z,0.00
2019-03-27T02:46:24.964Z,0.00
2019-03-27T02:47:19.506Z,0.00
2019-03-27T02:48:19.498Z,0.00
2019-03-27T02:49:19.694Z,0.00
2019-03-27T02:50:19.773Z,0.00
2019-03-27T02:51:19.475Z,0.00
2019-03-27T02:52:19.466Z,0.00
2019-03-27T02:54:19.470Z,0.00
2019-03-27T02:56:20.683Z,0.00
2019-03-27T02:57:19.632Z,0.00
2019-03-27T02:58:19.624Z,0.00
2019-03-27T02:59:19.618Z,0.00
2019-03-27T03:01:20.610Z,0.00
2019-03-27T03:02:19.385Z,0.00
2019-03-27T03:03:19.585Z,0.00
2019-03-27T03:04:19.371Z,0.00
2019-03-27T03:07:19.348Z,0.00
2019-03-27T03:08:19.550Z,0.00
2019-03-27T03:09:19.531Z,0.00
2019-03-27T03:10:19.320Z,0.00
2019-03-27T03:11:19.318Z,0.00
2019-03-27T03:13:19.503Z,0.00
2019-03-27T03:14:19.496Z,0.00
2019-03-27T03:16:19.274Z,0.00
2019-03-27T03:17:19.268Z,0.00
2019-03-27T03:20:19.446Z,0.00
2019-03-27T03:21:19.435Z,0.00
2019-03-27T03:22:19.238Z,0.00
2019-03-27T03:24:19.209Z,0.00
2019-03-27T03:25:19.203Z,0.00
2019-03-27T03:27:19.185Z,0.00
2019-03-27T03:28:19.182Z,0.00
2019-03-27T03:29:19.189Z,0.00
2019-03-27T03:30:19.170Z,0.00
2019-03-27T03:31:19.158Z,0.00
2019-03-27T03:32:19.154Z,0.00
2019-03-27T03:34:20.734Z,0.00
2019-03-27T03:35:19.157Z,0.00
2019-03-27T03:36:19.118Z,0.00
2019-03-27T03:37:19.102Z,0.00
2019-03-27T03:38:19.103Z,0.00
2019-03-27T03:40:19.081Z,0.00
2019-03-27T03:41:19.287Z,0.00
2019-03-27T03:42:19.068Z,0.00
2019-03-27T03:43:19.272Z,0.00
2019-03-27T03:44:19.055Z,0.00
2019-03-27T03:47:19.032Z,0.00
2019-03-27T03:48:19.022Z,0.00
2019-03-27T03:51:18.998Z,0.00
2019-03-27T03:54:18.978Z,0.00
2019-03-27T03:55:19.167Z,0.00
2019-03-27T03:56:19.161Z,0.00
2019-03-27T03:57:18.950Z,0.00
2019-03-27T03:58:19.349Z,0.00
2019-03-27T03:59:18.939Z,0.00
2019-03-27T04:00:19.012Z,0.00
2019-03-27T04:01:18.926Z,0.00
2019-03-27T04:02:18.914Z,0.00
2019-03-27T04:03:18.913Z,0.00
2019-03-27T04:04:18.896Z,0.00
2019-03-27T04:06:19.295Z,0.00
2019-03-27T04:08:18.868Z,0.00
2019-03-27T04:09:18.860Z,0.00
2019-03-27T04:10:19.295Z,0.00
2019-03-27T04:11:18.866Z,0.00
2019-03-27T04:12:18.840Z,0.00
2019-03-27T04:13:18.830Z,0.00
2019-03-27T04:15:18.813Z,0.00
2019-03-27T04:16:18.810Z,0.00
2019-03-27T04:17:20.233Z,0.00
2019-03-27T04:18:20.228Z,0.00
2019-03-27T04:20:18.782Z,0.00
2019-03-27T04:22:18.963Z,0.00
2019-03-27T04:23:18.958Z,0.00
2019-03-27T04:24:18.745Z,0.00
2019-03-27T04:26:18.739Z,0.00
2019-03-27T04:27:18.936Z,0.00
2019-03-27T04:28:18.720Z,0.00
2019-03-27T04:29:18.722Z,0.00
2019-03-27T04:30:18.708Z,0.00
2019-03-27T04:31:18.710Z,0.00
2019-03-27T04:34:18.673Z,0.00
2019-03-27T04:36:18.769Z,0.00
2019-03-27T04:37:18.656Z,0.00
2019-03-27T04:38:18.647Z,0.00
2019-03-27T04:39:18.637Z,0.00
2019-03-27T04:40:18.833Z,0.00
2019-03-27T04:41:18.620Z,0.00
2019-03-27T04:42:18.616Z,0.00
2019-03-27T04:44:18.806Z,0.00
2019-03-27T04:45:18.794Z,0.00
2019-03-27T04:47:31.488Z,0.00
2019-03-27T04:48:18.576Z,0.00
2019-03-27T04:49:18.565Z,0.00
2019-03-27T04:50:18.761Z,0.00
2019-03-27T04:52:18.549Z,0.00
2019-03-27T04:53:18.743Z,0.00
2019-03-27T04:54:18.528Z,4.00
2019-03-27T04:55:18.721Z,0.00
2019-03-27T04:56:18.508Z,4.00
2019-03-27T04:57:18.707Z,8.00
2019-03-27T04:58:18.498Z,8.00
2019-03-27T04:59:18.491Z,8.00
2019-03-27T05:01:18.474Z,12.00
2019-03-27T05:02:18.673Z,16.00
2019-03-27T05:03:18.457Z,16.00
2019-03-27T05:04:18.458Z,24.00
2019-03-27T05:06:18.439Z,24.00
2019-03-27T05:07:18.630Z,40.00
2019-03-27T05:08:18.627Z,56.00
2019-03-27T05:09:18.481Z,68.00
2019-03-27T05:10:18.610Z,80.00
2019-03-27T05:11:18.402Z,92.00
2019-03-27T05:12:18.594Z,108.00
2019-03-27T05:13:18.390Z,120.00
2019-03-27T05:14:18.585Z,136.00
2019-03-27T05:15:18.573Z,148.00
2019-03-27T05:16:18.363Z,156.00
2019-03-27T05:18:18.756Z,152.00
2019-03-27T05:20:18.741Z,160.00
2019-03-27T05:21:18.329Z,164.00
2019-03-27T05:23:18.320Z,188.00
2019-03-27T05:24:18.514Z,204.00
2019-03-27T05:25:18.301Z,224.00
2019-03-27T05:26:18.492Z,260.00
2019-03-27T05:27:18.287Z,292.00
2019-03-27T05:28:18.480Z,308.00
2019-03-27T05:29:18.270Z,344.00
2019-03-27T05:30:18.261Z,376.00
2019-03-27T05:32:18.249Z,424.00
2019-03-27T05:33:18.246Z,456.00
2019-03-27T05:35:18.235Z,480.00
2019-03-27T05:37:18.292Z,564.00
2019-03-27T05:38:18.209Z,568.00
2019-03-27T05:39:18.202Z,600.00
2019-03-27T05:40:18.197Z,660.00
2019-03-27T05:41:18.188Z,720.00
2019-03-27T05:42:18.201Z,788.00
2019-03-27T05:43:18.379Z,808.00
2019-03-27T05:44:18.168Z,840.00
2019-03-27T05:46:18.154Z,868.00
2019-03-27T05:47:18.350Z,916.00
2019-03-27T05:48:18.140Z,960.00
2019-03-27T05:49:18.130Z,1004.00
2019-03-27T05:50:18.124Z,1048.00
2019-03-27T05:51:18.115Z,1132.00
2019-03-27T05:52:18.111Z,1204.00
2019-03-27T05:54:18.095Z,1324.00
2019-03-27T05:55:18.287Z,1420.00
2019-03-27T05:56:18.078Z,1528.00
2019-03-27T05:57:18.472Z,1652.00
2019-03-27T05:58:18.271Z,1708.00
2019-03-27T05:59:18.056Z,1760.00
2019-03-27T06:00:18.253Z,1876.00
2019-03-27T06:02:18.036Z,2304.00
2019-03-27T06:03:18.232Z,2464.00
2019-03-27T06:05:18.216Z,2684.00
2019-03-27T06:07:18.005Z,3020.00
2019-03-27T06:08:17.995Z,3056.00
2019-03-27T06:10:18.006Z,2924.00
2019-03-27T06:12:18.166Z,2948.00
2019-03-27T06:14:17.955Z,3236.00
2019-03-27T06:15:18.146Z,3264.00
2019-03-27T06:17:18.134Z,3644.00
2019-03-27T06:18:17.929Z,4052.00
2019-03-27T06:19:18.128Z,3992.00
2019-03-27T06:21:17.908Z,3352.00
2019-03-27T06:22:17.908Z,3464.00
2019-03-27T06:24:18.499Z,3232.00
2019-03-27T06:26:18.079Z,3472.00
2019-03-27T06:27:17.878Z,3016.00
2019-03-27T06:31:17.846Z,2972.00
2019-03-27T06:32:17.835Z,3120.00
2019-03-27T06:33:17.832Z,3280.00
2019-03-27T06:34:17.821Z,3160.00
2019-03-27T06:35:20.199Z,3552.00
2019-03-27T06:36:18.011Z,3740.00
2019-03-27T06:38:17.802Z,3068.00
2019-03-27T06:39:17.793Z,3452.00
2019-03-27T06:40:17.784Z,4000.00
2019-03-27T06:42:17.781Z,4036.00
2019-03-27T06:43:17.785Z,4188.00
2019-03-27T06:44:17.763Z,4548.00
2019-03-27T06:45:17.774Z,5068.00
2019-03-27T06:47:17.751Z,3752.00
2019-03-27T06:49:17.934Z,4272.00
2019-03-27T06:51:17.921Z,4860.00
2019-03-27T06:52:17.923Z,5200.00
2019-03-27T06:53:17.735Z,5092.00
2019-03-27T06:54:17.699Z,4524.00
2019-03-27T06:55:17.759Z,4840.00
2019-03-27T06:56:17.691Z,4076.00
2019-03-27T06:57:17.683Z,3728.00
2019-03-27T06:59:17.671Z,4056.00
2019-03-27T07:00:17.659Z,4588.00
2019-03-27T07:01:17.655Z,4996.00
2019-03-27T07:03:17.648Z,4780.00
2019-03-27T07:04:17.641Z,5064.00
2019-03-27T07:05:17.634Z,3948.00
2019-03-27T07:07:17.622Z,3856.00
2019-03-27T07:08:17.817Z,4168.00
2019-03-27T07:13:17.580Z,3972.00
2019-03-27T07:14:17.577Z,6340.00
2019-03-27T07:15:17.575Z,6216.00
2019-03-27T07:16:17.564Z,4876.00
2019-03-27T07:17:17.564Z,6008.00
2019-03-27T07:18:17.549Z,5176.00
2019-03-27T07:19:17.550Z,4216.00
2019-03-27T07:20:17.747Z,4308.00
2019-03-27T07:21:17.532Z,4564.00
2019-03-27T07:22:17.532Z,4296.00
2019-03-27T07:23:17.529Z,4056.00
2019-03-27T07:24:17.516Z,6424.00
2019-03-27T07:25:17.513Z,5944.00
2019-03-27T07:26:17.510Z,5192.00
2019-03-27T07:29:19.048Z,6432.00
2019-03-27T07:30:18.104Z,4772.00
2019-03-27T07:31:17.473Z,5228.00
2019-03-27T07:32:17.478Z,6868.00
2019-03-27T07:33:17.668Z,6984.00
2019-03-27T07:34:17.460Z,6080.00
2019-03-27T07:35:17.458Z,6520.00
2019-03-27T07:36:17.444Z,6764.00
2019-03-27T07:37:17.444Z,5712.00
2019-03-27T07:38:17.639Z,6088.00
2019-03-27T07:39:17.427Z,8216.00
2019-03-27T07:41:17.622Z,6836.00
2019-03-27T07:43:17.409Z,8184.00
2019-03-27T07:44:17.407Z,7348.00
2019-03-27T07:45:17.397Z,7776.00
2019-03-27T07:46:17.394Z,9668.00
2019-03-27T07:48:17.580Z,8380.00
2019-03-27T07:49:17.378Z,10436.00
2019-03-27T07:50:17.781Z,11252.00
2019-03-27T07:51:17.572Z,9048.00
2019-03-27T07:53:17.351Z,6532.00
2019-03-27T07:58:17.324Z,5264.00
2019-03-27T07:59:17.325Z,5052.00
2019-03-27T08:02:17.311Z,9216.00
2019-03-27T08:03:17.304Z,9236.00
2019-03-27T08:05:17.289Z,8384.00
2019-03-27T08:06:17.284Z,8848.00
2019-03-27T08:07:26.640Z,8108.00
2019-03-27T08:08:17.276Z,7468.00
2019-03-27T08:09:17.270Z,7900.00
2019-03-27T08:10:17.468Z,6840.00
2019-03-27T08:11:17.301Z,7180.00
2019-03-27T08:12:17.272Z,8112.00
2019-03-27T08:14:17.245Z,10904.00
2019-03-27T08:15:17.239Z,10516.00
2019-03-27T08:16:17.233Z,8944.00
2019-03-27T08:18:17.222Z,8524.00
2019-03-27T08:19:17.426Z,10084.00
2019-03-27T08:21:17.416Z,10308.00
2019-03-27T08:22:17.405Z,9048.00
2019-03-27T08:25:18.615Z,7648.00
2019-03-27T08:28:17.383Z,11328.00
2019-03-27T08:29:17.173Z,8016.00
2019-03-27T08:30:17.164Z,5880.00
2019-03-27T08:31:17.364Z,7080.00
2019-03-27T08:32:17.362Z,6704.00
2019-03-27T08:33:17.152Z,7284.00
2019-03-27T08:34:17.150Z,7844.00
2019-03-27T08:36:17.144Z,8112.00
2019-03-27T08:37:18.758Z,6392.00
2019-03-27T08:38:17.129Z,7912.00
2019-03-27T08:40:17.122Z,7656.00
2019-03-27T08:42:17.111Z,5768.00
2019-03-27T08:43:21.954Z,6976.00
2019-03-27T08:46:17.300Z,6992.00
2019-03-27T08:47:17.095Z,7344.00
2019-03-27T08:48:17.089Z,6768.00
2019-03-27T08:49:22.133Z,5336.00
2019-03-27T08:50:17.280Z,5400.00
2019-03-27T08:51:17.075Z,5168.00
2019-03-27T08:52:17.069Z,6216.00
2019-03-27T08:55:17.052Z,7116.00
2019-03-27T08:56:17.259Z,9524.00
2019-03-27T08:58:17.040Z,8960.00
2019-03-27T09:00:17.028Z,9116.00
2019-03-27T09:02:17.433Z,8812.00
2019-03-27T09:03:17.016Z,7408.00
2019-03-27T09:04:17.012Z,6680.00
2019-03-27T09:05:17.211Z,9936.00
2019-03-27T09:06:17.007Z,8880.00
2019-03-27T09:07:16.997Z,8672.00
2019-03-27T09:08:16.995Z,8820.00
2019-03-27T09:09:17.190Z,7548.00
2019-03-27T09:10:16.989Z,4968.00
2019-03-27T09:14:16.970Z,4964.00
2019-03-27T09:15:16.961Z,5392.00
2019-03-27T09:16:16.961Z,5752.00
2019-03-27T09:17:16.958Z,7436.00
2019-03-27T09:18:17.160Z,6388.00
2019-03-27T09:20:16.943Z,6904.00
2019-03-27T09:21:16.942Z,8480.00
2019-03-27T09:22:16.931Z,7052.00
2019-03-27T09:23:16.925Z,5592.00
2019-03-27T09:24:16.921Z,5392.00
2019-03-27T09:26:16.918Z,5220.00
2019-03-27T09:30:16.897Z,4728.00
2019-03-27T09:32:16.890Z,5068.00
2019-03-27T09:35:16.873Z,8500.00
2019-03-27T09:36:16.867Z,7640.00
2019-03-27T09:37:17.067Z,7972.00
2019-03-27T09:39:17.059Z,9064.00
2019-03-27T09:41:16.840Z,8052.00
2019-03-27T09:42:17.045Z,7104.00
2019-03-27T09:43:16.840Z,6744.00
2019-03-27T09:44:16.833Z,6864.00
2019-03-27T09:47:16.823Z,10952.00
2019-03-27T09:48:16.813Z,10788.00
2019-03-27T09:51:17.004Z,9784.00
2019-03-27T09:52:16.801Z,8868.00
2019-03-27T09:53:16.788Z,10172.00
2019-03-27T09:54:16.792Z,10132.00
2019-03-27T09:56:19.389Z,8808.00
2019-03-27T09:58:16.774Z,8400.00
2019-03-27T09:59:16.766Z,8816.00
2019-03-27T10:00:16.863Z,9212.00
2019-03-27T10:01:16.961Z,11504.00
2019-03-27T10:02:16.756Z,12760.00
2019-03-27T10:03:18.175Z,14124.00
2019-03-27T10:05:16.947Z,15972.00
2019-03-27T10:07:16.740Z,17920.00
2019-03-27T10:08:16.736Z,19776.00
2019-03-27T10:09:16.732Z,20352.00
2019-03-27T10:10:16.733Z,18592.00
2019-03-27T10:11:16.733Z,19488.00
2019-03-27T10:12:16.734Z,19328.00
2019-03-27T10:13:16.724Z,18112.00
2019-03-27T10:14:16.724Z,19680.00
2019-03-27T10:15:16.724Z,18272.00
2019-03-27T10:16:16.921Z,18624.00
2019-03-27T10:17:16.722Z,18752.00
2019-03-27T10:18:17.119Z,19456.00
2019-03-27T10:19:16.714Z,19136.00
2019-03-27T10:21:16.912Z,18784.00
2019-03-27T10:22:16.714Z,18112.00
2019-03-27T10:23:16.908Z,16992.00
2019-03-27T10:24:16.705Z,15012.00
2019-03-27T10:25:16.904Z,13068.00
2019-03-27T10:26:18.112Z,12400.00
2019-03-27T10:27:16.703Z,13040.00
2019-03-27T10:28:16.703Z,13324.00
2019-03-27T10:29:17.918Z,13840.00
2019-03-27T10:30:16.697Z,14528.00
2019-03-27T10:31:16.691Z,14652.00
2019-03-27T10:33:16.895Z,14328.00
2019-03-27T10:35:16.686Z,15692.00
2019-03-27T10:36:16.682Z,16980.00
2019-03-27T10:37:17.087Z,18880.00
2019-03-27T10:39:16.879Z,23296.00
2019-03-27T10:40:16.671Z,25600.00
2019-03-27T10:41:16.674Z,26368.00
2019-03-27T10:42:16.876Z,28480.00
2019-03-27T10:43:16.873Z,30848.00
2019-03-27T10:44:17.574Z,30624.00
2019-03-27T10:46:16.678Z,30720.00
2019-03-27T10:47:16.866Z,30560.00
2019-03-27T10:48:16.670Z,30336.00
2019-03-27T10:49:16.665Z,30144.00
2019-03-27T10:50:18.091Z,28608.00
2019-03-27T10:51:16.668Z,26560.00
2019-03-27T10:52:16.675Z,25536.00
2019-03-27T10:54:16.665Z,24160.00
2019-03-27T10:57:16.863Z,21312.00
2019-03-27T10:59:16.670Z,24128.00
2019-03-27T11:00:16.662Z,26560.00
2019-03-27T11:01:16.664Z,24576.00
2019-03-27T11:04:16.869Z,23264.00
2019-03-27T11:05:16.664Z,21888.00
2019-03-27T11:07:16.864Z,22048.00
2019-03-27T11:08:16.660Z,25440.00
2019-03-27T11:10:16.661Z,27200.00
2019-03-27T11:12:16.661Z,28480.00
2019-03-27T11:13:16.869Z,25632.00
2019-03-27T11:14:16.663Z,26016.00
2019-03-27T11:15:16.670Z,26304.00
2019-03-27T11:16:16.673Z,27136.00
2019-03-27T11:17:16.865Z,29280.00
2019-03-27T11:18:16.664Z,29344.00
2019-03-27T11:19:16.665Z,31040.00
2019-03-27T11:20:29.970Z,27776.00
2019-03-27T11:21:16.673Z,30336.00
2019-03-27T11:22:16.668Z,37632.00
2019-03-27T11:23:16.674Z,39136.00
2019-03-27T11:26:16.676Z,34080.00
2019-03-27T11:27:16.890Z,28928.00
2019-03-27T11:28:16.679Z,35296.00
2019-03-27T11:29:16.688Z,31104.00
2019-03-27T11:30:16.689Z,25152.00
2019-03-27T11:32:16.693Z,22496.00
2019-03-27T11:34:16.915Z,20288.00
2019-03-27T11:35:16.694Z,18688.00
2019-03-27T11:42:16.693Z,18752.00
2019-03-27T11:43:16.697Z,35488.00
2019-03-27T11:44:16.688Z,45184.00
2019-03-27T11:45:16.686Z,45024.00
2019-03-27T11:47:16.688Z,25120.00
2019-03-27T11:50:16.899Z,61888.00
2019-03-27T11:51:16.696Z,54848.00
2019-03-27T11:52:16.697Z,51040.00
2019-03-27T11:53:16.705Z,57536.00
2019-03-27T11:54:16.703Z,57408.00
2019-03-27T11:55:16.912Z,61888.00
2019-03-27T11:56:16.717Z,64256.00
2019-03-27T12:00:16.939Z,74528.00
2019-03-27T12:01:16.741Z,69856.00
2019-03-27T12:02:16.746Z,68256.00
2019-03-27T12:03:16.961Z,55552.00
2019-03-27T12:04:16.767Z,53600.00
2019-03-27T12:06:16.782Z,47328.00
2019-03-27T12:07:16.783Z,52032.00
2019-03-27T12:08:16.995Z,43424.00
2019-03-27T12:09:16.810Z,35104.00
2019-03-27T12:10:16.804Z,45536.00
2019-03-27T12:13:17.231Z,62176.00
2019-03-27T12:14:16.837Z,77632.00
2019-03-27T12:15:16.841Z,96352.00
2019-03-27T12:16:17.256Z,86208.00
2019-03-27T12:17:17.063Z,89536.00
2019-03-27T12:19:16.878Z,29408.00
2019-03-27T12:21:16.898Z,29984.00
2019-03-27T12:22:16.906Z,37728.00
2019-03-27T12:23:16.914Z,38144.00
2019-03-27T12:24:16.914Z,62496.00
2019-03-27T12:26:17.133Z,67232.00
2019-03-27T12:30:16.969Z,62400.00
2019-03-27T12:33:17.002Z,46272.00
2019-03-27T12:34:17.416Z,45120.00
2019-03-27T12:37:17.037Z,20992.00
2019-03-27T12:38:17.048Z,20096.00
2019-03-27T12:39:17.057Z,20320.00
2019-03-27T12:40:17.063Z,19136.00
2019-03-27T12:41:17.070Z,18336.00
2019-03-27T12:42:17.274Z,18912.00
2019-03-27T12:44:17.085Z,20448.00
2019-03-27T12:45:17.088Z,22624.00
2019-03-27T12:46:17.098Z,19392.00
2019-03-27T12:47:17.103Z,21664.00
2019-03-27T12:48:17.110Z,50752.00
2019-03-27T12:49:17.112Z,35136.00
2019-03-27T12:50:17.529Z,39264.00
2019-03-27T12:51:17.127Z,20768.00
2019-03-27T12:54:17.548Z,20480.00
2019-03-27T12:55:17.149Z,19264.00
2019-03-27T12:56:17.149Z,19584.00
2019-03-27T12:58:17.165Z,24704.00
2019-03-27T13:00:17.167Z,28960.00
2019-03-27T13:01:17.380Z,25760.00
2019-03-27T13:02:17.181Z,24480.00
2019-03-27T13:04:17.188Z,20640.00
2019-03-27T13:05:17.195Z,20320.00
2019-03-27T13:09:17.206Z,24128.00
2019-03-27T13:10:17.411Z,20736.00
2019-03-27T13:11:17.411Z,20288.00
2019-03-27T13:12:17.218Z,19200.00
2019-03-27T13:13:17.212Z,17856.00
2019-03-27T13:16:17.228Z,17408.00
2019-03-27T13:18:17.429Z,18208.00
2019-03-27T13:19:17.631Z,18176.00
2019-03-27T13:20:17.437Z,24352.00
2019-03-27T13:23:17.239Z,10884.00
2019-03-27T13:26:17.442Z,9408.00
2019-03-27T13:27:17.444Z,9684.00
2019-03-27T13:28:17.243Z,10660.00
2019-03-27T13:29:17.243Z,11640.00
2019-03-27T13:30:17.240Z,12348.00
2019-03-27T13:34:18.461Z,11356.00
2019-03-27T13:39:17.654Z,11828.00
2019-03-27T13:40:17.272Z,13032.00
2019-03-27T13:41:17.243Z,14264.00
2019-03-27T13:42:17.239Z,14992.00
2019-03-27T13:43:17.241Z,14724.00
2019-03-27T13:44:17.238Z,14752.00
2019-03-27T13:46:17.244Z,15200.00
2019-03-27T13:47:17.641Z,15380.00
2019-03-27T13:50:17.236Z,15468.00
2019-03-27T13:51:17.437Z,16368.00
2019-03-27T13:54:17.237Z,18816.00
2019-03-27T13:55:17.239Z,19520.00
2019-03-27T13:57:17.434Z,19584.00
2019-03-27T13:58:17.439Z,19680.00
2019-03-27T13:59:17.237Z,19552.00
2019-03-27T14:01:17.235Z,19456.00
2019-03-27T14:03:17.233Z,18784.00
2019-03-27T14:04:17.235Z,18464.00
2019-03-27T14:06:17.232Z,18208.00
2019-03-27T14:07:17.238Z,18368.00
2019-03-27T14:08:17.435Z,18496.00
2019-03-27T14:09:17.634Z,18080.00
2019-03-27T14:11:17.237Z,16736.00
2019-03-27T14:13:17.240Z,15444.00
2019-03-27T14:14:17.447Z,15204.00
2019-03-27T14:16:17.236Z,14244.00
2019-03-27T14:17:17.235Z,13736.00
2019-03-27T14:18:17.231Z,13200.00
2019-03-27T14:19:17.436Z,12688.00
2019-03-27T14:22:18.461Z,11560.00
2019-03-27T14:23:17.235Z,11544.00
2019-03-27T14:24:17.433Z,11680.00
2019-03-27T14:26:17.232Z,11500.00
2019-03-27T14:27:17.231Z,11344.00
2019-03-27T14:28:17.231Z,11332.00
2019-03-27T14:29:17.229Z,11372.00
2019-03-27T14:31:20.253Z,11548.00
2019-03-27T14:32:17.226Z,11812.00
2019-03-27T14:34:17.421Z,12300.00
2019-03-27T14:35:17.619Z,12444.00
2019-03-27T14:36:17.220Z,12544.00
2019-03-27T14:38:17.216Z,12756.00
2019-03-27T14:39:17.419Z,12916.00
2019-03-27T14:40:17.211Z,13000.00
2019-03-27T14:41:17.412Z,13148.00
2019-03-27T14:43:17.211Z,13472.00
2019-03-27T14:44:17.206Z,13688.00
2019-03-27T14:45:17.411Z,14032.00
2019-03-27T14:46:17.207Z,14420.00
2019-03-27T14:47:17.209Z,14896.00
2019-03-27T14:49:17.401Z,16448.00
2019-03-27T14:50:17.403Z,16736.00
2019-03-27T14:52:17.200Z,17312.00
2019-03-27T14:53:17.198Z,18432.00
2019-03-27T14:54:17.202Z,19072.00
2019-03-27T14:55:17.397Z,18240.00
2019-03-27T14:56:17.195Z,20704.00
2019-03-27T14:57:17.194Z,22720.00
2019-03-27T14:58:17.195Z,22752.00
2019-03-27T14:59:17.397Z,25824.00
2019-03-27T15:02:17.404Z,24064.00
2019-03-27T15:03:17.199Z,22304.00
2019-03-27T15:04:17.200Z,21920.00
2019-03-27T15:05:17.206Z,20736.00
2019-03-27T15:06:17.206Z,20096.00
2019-03-27T15:07:17.208Z,21568.00
2019-03-27T15:10:17.212Z,26688.00
2019-03-27T15:11:17.211Z,29536.00
2019-03-27T15:12:17.414Z,26592.00
2019-03-27T15:13:17.212Z,26560.00
2019-03-27T15:15:17.423Z,24544.00
2019-03-27T15:16:17.425Z,26112.00
2019-03-27T15:19:17.433Z,28992.00
2019-03-27T15:20:17.242Z,28640.00
2019-03-27T15:21:20.270Z,29024.00
2019-03-27T15:22:22.606Z,30240.00
2019-03-27T15:23:17.247Z,31072.00
2019-03-27T15:24:20.457Z,30816.00
2019-03-27T15:25:17.263Z,31136.00
2019-03-27T15:26:17.468Z,30144.00
2019-03-27T15:27:17.279Z,26912.00
2019-03-27T15:28:17.482Z,23712.00
2019-03-27T15:30:17.290Z,27200.00
2019-03-27T15:31:20.782Z,28096.00
2019-03-27T15:32:17.306Z,18080.00
2019-03-27T15:33:17.307Z,24704.00
2019-03-27T15:35:18.529Z,26144.00
2019-03-27T15:37:17.547Z,26656.00
2019-03-27T15:38:17.543Z,22656.00
2019-03-27T15:40:17.551Z,21120.00
2019-03-27T15:42:17.357Z,20576.00
2019-03-27T15:45:17.379Z,20704.00
2019-03-27T15:46:17.581Z,19552.00
2019-03-27T15:48:17.396Z,22752.00
2019-03-27T15:49:17.394Z,21632.00
2019-03-27T15:50:17.399Z,22784.00
2019-03-27T15:51:18.816Z,22240.00
2019-03-27T15:52:17.417Z,21088.00
2019-03-27T15:54:17.626Z,19840.00
2019-03-27T15:55:17.627Z,18688.00
2019-03-27T15:58:17.442Z,11244.00
2019-03-27T15:59:17.649Z,9912.00
2019-03-27T16:00:17.452Z,8792.00
2019-03-27T16:01:17.658Z,7932.00
2019-03-27T16:02:17.454Z,7328.00
2019-03-27T16:03:17.666Z,6876.00
2019-03-27T16:04:17.461Z,6508.00
2019-03-27T16:05:17.456Z,6196.00
2019-03-27T16:06:18.883Z,5916.00
2019-03-27T16:07:17.465Z,5664.00
2019-03-27T16:08:17.469Z,5428.00
2019-03-27T16:09:17.671Z,5256.00
2019-03-27T16:10:18.471Z,5124.00
2019-03-27T16:11:17.469Z,5024.00
2019-03-27T16:12:17.467Z,4944.00
2019-03-27T16:13:17.462Z,4904.00
2019-03-27T16:14:17.465Z,4900.00
2019-03-27T16:15:17.514Z,4900.00
2019-03-27T16:16:18.691Z,4884.00
2019-03-27T16:18:17.671Z,4748.00
2019-03-27T16:19:17.463Z,4628.00
2019-03-27T16:21:17.466Z,4468.00
2019-03-27T16:22:17.461Z,4460.00
2019-03-27T16:23:17.460Z,4512.00
2019-03-27T16:24:17.864Z,4624.00
2019-03-27T16:26:17.658Z,4624.00
2019-03-27T16:27:17.454Z,4596.00
2019-03-27T16:29:18.655Z,4552.00
2019-03-27T16:30:17.657Z,4520.00
2019-03-27T16:32:17.446Z,4288.00
2019-03-27T16:33:17.450Z,4232.00
2019-03-27T16:34:17.445Z,4128.00
2019-03-27T16:35:17.447Z,3924.00
2019-03-27T16:36:17.844Z,3872.00
2019-03-27T16:37:17.441Z,3736.00
2019-03-27T16:38:17.646Z,3748.00
2019-03-27T16:39:17.432Z,3760.00
2019-03-27T16:40:17.432Z,3748.00
2019-03-27T16:43:17.635Z,3604.00
2019-03-27T16:44:17.427Z,3604.00
2019-03-27T16:46:17.422Z,3596.00
2019-03-27T16:47:17.618Z,3552.00
2019-03-27T16:48:17.414Z,3528.00
2019-03-27T16:49:17.413Z,3468.00
2019-03-27T16:50:17.606Z,3456.00
2019-03-27T16:54:17.399Z,2960.00
2019-03-27T16:55:17.389Z,2832.00
2019-03-27T16:57:17.389Z,2656.00
2019-03-27T16:58:17.381Z,2620.00
2019-03-27T16:59:17.378Z,2592.00